Time;durP1;ratioP1;P1;durP2;ratioP2;P2;SDS_P1;SDS_P2;PMS_P1;PMS_P2;Temp;Humidity;BMP_temperature;BMP_pressure;BME280_temperature;BME280_humidity;BME280_pressure;Samples;Min_cycle;Max_cycle;Signal;HPM_P1;HPM_P2
2020/12/19 00:01:32;;;;;;;9.00;8.17;;;6.90;99.90;;;;;;5082917;28;20185;-62
2020/12/19 00:03:58;;;;;;;9.90;8.83;;;7.00;99.90;;;;;;5082749;28;20939;-62
2020/12/19 00:06:24;;;;;;;9.40;8.50;;;7.00;99.90;;;;;;5083539;28;20446;-63
2020/12/19 00:08:49;;;;;;;9.13;8.07;;;7.10;99.90;;;;;;5098727;28;20423;-62
2020/12/19 00:11:15;;;;;;;9.20;8.40;;;7.10;99.90;;;;;;5103457;28;20419;-61
2020/12/19 00:13:41;;;;;;;8.20;7.50;;;7.00;99.90;;;;;;5102416;28;20187;-62
2020/12/19 00:16:07;;;;;;;8.57;7.73;;;7.00;99.90;;;;;;5102487;28;20392;-62
2020/12/19 00:18:33;;;;;;;10.10;8.20;;;7.00;99.90;;;;;;5102015;28;20200;-62
2020/12/19 00:20:59;;;;;;;9.00;8.10;;;6.90;99.90;;;;;;5101277;28;20415;-62
2020/12/19 00:23:24;;;;;;;10.20;9.30;;;7.10;99.90;;;;;;5103290;28;20524;-62
2020/12/19 00:25:50;;;;;;;9.27;8.47;;;7.20;99.90;;;;;;5094421;28;20198;-62
2020/12/19 00:28:16;;;;;;;8.77;7.90;;;7.00;99.90;;;;;;5083797;28;20297;-62
2020/12/19 00:30:41;;;;;;;9.50;8.60;;;6.90;99.90;;;;;;5083020;28;20428;-62
2020/12/19 00:33:07;;;;;;;8.90;8.10;;;6.80;99.90;;;;;;5082605;28;20188;-62
2020/12/19 00:35:33;;;;;;;8.93;8.00;;;6.80;99.90;;;;;;5082302;28;20174;-62
2020/12/19 00:37:58;;;;;;;11.10;8.90;;;6.80;99.90;;;;;;5081842;28;20607;-61
2020/12/19 00:40:24;;;;;;;10.20;7.20;;;6.80;99.90;;;;;;5082065;28;20170;-62
2020/12/19 00:42:49;;;;;;;7.60;6.90;;;6.60;99.90;;;;;;5082312;28;20259;-62
2020/12/19 00:45:15;;;;;;;9.00;8.10;;;6.60;99.90;;;;;;5081858;28;20174;-62
2020/12/19 00:47:41;;;;;;;7.00;6.30;;;6.70;99.90;;;;;;5080688;28;20197;-63
2020/12/19 00:50:08;;;;;;;9.07;7.03;;;6.50;99.90;;;;;;5082415;28;20565;-62
2020/12/19 00:52:34;;;;;;;7.03;6.33;;;6.60;99.90;;;;;;5081772;28;20629;-62
2020/12/19 00:55:00;;;;;;;6.73;6.13;;;6.60;99.90;;;;;;5078788;28;20499;-62
2020/12/19 00:57:32;;;;;;;7.63;6.87;;;6.60;99.90;;;;;;5077971;28;20471;-62
2020/12/19 00:59:58;;;;;;;6.87;6.17;;;6.60;99.90;;;;;;5078598;28;20474;-61
2020/12/19 01:02:24;;;;;;;7.20;6.50;;;6.50;99.90;;;;;;5078496;28;20978;-62
2020/12/19 01:04:50;;;;;;;7.70;7.00;;;6.50;99.90;;;;;;5078519;28;20416;-62
2020/12/19 01:07:16;;;;;;;7.50;6.70;;;6.50;99.90;;;;;;5077784;28;20505;-62
2020/12/19 01:09:41;;;;;;;8.00;6.77;;;6.50;99.90;;;;;;5078017;28;20263;-62
2020/12/19 01:12:07;;;;;;;7.80;7.00;;;6.50;99.90;;;;;;5077789;28;20170;-62
2020/12/19 01:14:33;;;;;;;6.97;6.27;;;6.50;99.90;;;;;;5081764;28;20200;-62
2020/12/19 01:17:03;;;;;;;6.90;6.20;;;6.50;99.90;;;;;;5084296;28;20178;-63
2020/12/19 01:19:28;;;;;;;9.07;7.50;;;6.40;99.90;;;;;;5078228;28;20435;-62
2020/12/19 01:21:54;;;;;;;7.53;6.73;;;6.40;99.90;;;;;;5077136;28;20416;-62
2020/12/19 01:24:19;;;;;;;7.93;7.13;;;6.50;99.90;;;;;;5078415;28;20224;-62
2020/12/19 01:26:47;;;;;;;9.43;7.40;;;6.40;99.90;;;;;;5078244;28;20208;-62
2020/12/19 01:29:13;;;;;;;8.47;7.40;;;6.50;99.90;;;;;;5078880;28;20531;-62
2020/12/19 01:31:38;;;;;;;7.93;7.13;;;6.50;99.90;;;;;;5077744;28;20408;-62
2020/12/19 01:34:04;;;;;;;7.17;6.47;;;6.60;99.90;;;;;;5079407;28;20196;-62
2020/12/19 01:36:29;;;;;;;8.10;7.30;;;6.70;99.90;;;;;;5079040;28;20177;-61
2020/12/19 01:38:55;;;;;;;17.70;6.80;;;6.80;99.90;;;;;;5078065;28;20205;-63
2020/12/19 01:41:21;;;;;;;7.57;6.80;;;6.80;99.90;;;;;;5078660;28;20245;-63
2020/12/19 01:43:56;;;;;;;8.03;6.50;;;6.90;99.90;;;;;;5076713;28;20178;-63
2020/12/19 01:46:51;;;;;;;8.03;7.00;;;6.90;99.90;;;;;;5077778;28;20515;-62
2020/12/19 01:49:17;;;;;;;8.30;6.73;;;6.70;99.90;;;;;;5077901;28;20396;-62
2020/12/19 01:51:43;;;;;;;7.90;7.20;;;6.60;99.90;;;;;;5077404;28;20404;-63
2020/12/19 01:54:09;;;;;;;7.43;6.83;;;6.70;99.90;;;;;;5076754;28;20416;-62
2020/12/19 01:56:51;;;;;;;6.53;6.03;;;6.50;99.90;;;;;;5077672;28;20220;-63
2020/12/19 01:59:17;;;;;;;6.70;5.77;;;6.40;99.90;;;;;;5077742;28;20307;-63
2020/12/19 02:01:51;;;;;;;6.40;5.80;;;6.40;99.90;;;;;;5079181;28;20411;-62
2020/12/19 02:04:18;;;;;;;6.07;5.40;;;6.40;99.90;;;;;;5079029;28;20450;-62
2020/12/19 02:06:50;;;;;;;6.37;5.77;;;6.30;99.90;;;;;;5078983;28;20502;-63
2020/12/19 02:09:17;;;;;;;6.80;6.20;;;6.30;99.90;;;;;;5078853;28;20446;-62
2020/12/19 02:11:44;;;;;;;6.30;5.70;;;6.30;99.90;;;;;;5086957;28;20795;-62
2020/12/19 02:14:11;;;;;;;6.77;6.07;;;6.20;99.90;;;;;;5098319;28;20436;-62
2020/12/19 02:16:37;;;;;;;7.60;6.90;;;6.20;99.90;;;;;;5097694;28;20444;-61
2020/12/19 02:19:12;;;;;;;8.60;5.30;;;6.20;99.90;;;;;;5096665;28;20853;-61
2020/12/19 02:21:41;;;;;;;8.80;7.20;;;6.20;99.90;;;;;;5098134;28;20435;-62
2020/12/19 02:24:07;;;;;;;7.77;6.97;;;6.20;99.90;;;;;;5097023;28;20798;-62
2020/12/19 02:26:33;;;;;;;8.20;7.10;;;6.30;99.90;;;;;;5082572;28;20452;-62
2020/12/19 02:28:58;;;;;;;7.57;6.97;;;6.30;99.90;;;;;;5077446;28;20709;-62
2020/12/19 02:31:24;;;;;;;6.63;5.93;;;6.20;99.90;;;;;;5076429;28;20174;-62
2020/12/19 02:33:49;;;;;;;7.70;6.90;;;6.30;99.90;;;;;;5075998;28;20701;-62
2020/12/19 02:36:15;;;;;;;6.77;6.20;;;6.40;99.90;;;;;;5077508;28;20170;-64
2020/12/19 02:38:41;;;;;;;6.60;5.90;;;6.50;99.90;;;;;;5076422;28;20202;-63
2020/12/19 02:41:06;;;;;;;6.50;5.90;;;6.50;99.90;;;;;;5076473;28;20182;-63
2020/12/19 02:43:32;;;;;;;8.17;7.40;;;6.50;99.90;;;;;;5076956;28;20173;-62
2020/12/19 02:45:58;;;;;;;7.00;6.30;;;6.30;99.90;;;;;;5076741;28;20251;-62
2020/12/19 02:48:24;;;;;;;7.83;6.37;;;6.40;99.90;;;;;;5076808;28;20235;-62
2020/12/19 02:50:50;;;;;;;7.67;6.90;;;6.50;99.90;;;;;;5076511;28;20816;-63
2020/12/19 02:53:15;;;;;;;8.07;6.93;;;6.50;99.90;;;;;;5075577;28;20173;-63
2020/12/19 02:55:41;;;;;;;7.90;7.20;;;6.50;99.90;;;;;;5076750;28;20180;-63
2020/12/19 02:58:06;;;;;;;6.97;6.20;;;6.50;99.90;;;;;;5077607;28;20539;-62
2020/12/19 03:00:32;;;;;;;6.53;5.80;;;6.60;99.90;;;;;;5076674;28;20173;-62
2020/12/19 03:02:57;;;;;;;6.93;6.23;;;6.50;99.90;;;;;;5076856;28;20198;-62
2020/12/19 03:05:23;;;;;;;8.63;6.50;;;6.60;99.90;;;;;;5076664;28;20181;-62
2020/12/19 03:07:49;;;;;;;6.53;5.97;;;6.50;99.90;;;;;;5076072;28;20194;-63
2020/12/19 03:10:15;;;;;;;7.60;6.37;;;6.60;99.90;;;;;;5076206;28;20166;-62
2020/12/19 03:12:40;;;;;;;6.87;6.17;;;6.50;99.90;;;;;;5076890;28;20170;-62
2020/12/19 03:15:06;;;;;;;7.30;6.30;;;6.60;99.90;;;;;;5076977;28;20447;-62
2020/12/19 03:17:31;;;;;;;7.10;6.50;;;6.70;99.90;;;;;;5076970;28;20190;-62
2020/12/19 03:19:57;;;;;;;7.33;6.60;;;6.70;99.90;;;;;;5075920;28;20208;-63
2020/12/19 03:22:23;;;;;;;10.30;7.20;;;6.70;99.90;;;;;;5074844;28;20235;-65
2020/12/19 03:24:48;;;;;;;7.33;6.63;;;6.60;99.90;;;;;;5092753;28;20173;-63
2020/12/19 03:27:14;;;;;;;7.30;6.60;;;6.40;99.90;;;;;;5080880;28;20284;-63
2020/12/19 03:29:39;;;;;;;8.27;7.43;;;6.40;99.90;;;;;;5077530;28;20170;-63
2020/12/19 03:32:05;;;;;;;6.70;6.10;;;6.40;99.90;;;;;;5087931;28;20201;-63
2020/12/19 03:34:30;;;;;;;7.20;6.53;;;6.20;99.90;;;;;;5097152;28;20195;-63
2020/12/19 03:36:56;;;;;;;6.90;6.20;;;6.30;99.90;;;;;;5092245;28;20727;-64
2020/12/19 03:39:22;;;;;;;7.53;6.30;;;6.20;99.90;;;;;;5076246;28;20181;-63
2020/12/19 03:41:47;;;;;;;8.40;6.00;;;6.30;99.90;;;;;;5076665;28;20628;-63
2020/12/19 03:44:13;;;;;;;6.47;5.87;;;6.10;99.90;;;;;;5076224;28;20248;-63
2020/12/19 03:46:39;;;;;;;7.67;6.97;;;6.20;99.90;;;;;;5076382;28;20673;-63
2020/12/19 03:49:05;;;;;;;5.77;5.27;;;6.20;99.90;;;;;;5076234;28;20204;-63
2020/12/19 03:51:30;;;;;;;9.73;6.67;;;6.20;99.90;;;;;;5076777;28;20428;-63
2020/12/19 03:53:56;;;;;;;8.20;6.63;;;6.10;99.90;;;;;;5076972;28;20247;-63
2020/12/19 03:56:22;;;;;;;6.20;5.63;;;6.10;99.90;;;;;;5076827;28;20212;-63
2020/12/19 03:58:47;;;;;;;5.73;5.23;;;6.00;99.90;;;;;;5076931;28;20189;-63
2020/12/19 04:01:13;;;;;;;7.13;5.80;;;6.00;99.90;;;;;;5076623;28;20166;-62
2020/12/19 04:03:38;;;;;;;5.83;4.53;;;5.90;99.90;;;;;;5077146;28;20196;-64
2020/12/19 04:06:04;;;;;;;8.90;6.50;;;5.90;99.90;;;;;;5076605;28;20552;-62
2020/12/19 04:08:29;;;;;;;5.70;5.10;;;5.80;99.90;;;;;;5076447;28;20201;-62
2020/12/19 04:10:55;;;;;;;5.30;4.80;;;5.90;99.90;;;;;;5075980;28;20175;-63
2020/12/19 04:13:20;;;;;;;6.27;4.93;;;5.80;99.90;;;;;;5076691;28;20192;-63
2020/12/19 04:15:46;;;;;;;5.63;5.07;;;5.80;99.90;;;;;;5077057;28;20190;-63
2020/12/19 04:18:11;;;;;;;6.27;5.43;;;5.80;99.90;;;;;;5076568;28;20201;-62
2020/12/19 04:20:37;;;;;;;5.40;5.00;;;5.80;99.90;;;;;;5075918;28;20675;-63
2020/12/19 04:23:03;;;;;;;5.63;4.93;;;5.70;99.90;;;;;;5076627;28;20166;-62
2020/12/19 04:25:28;;;;;;;5.70;5.20;;;5.60;99.90;;;;;;5076067;28;20174;-63
2020/12/19 04:27:54;;;;;;;4.90;4.50;;;5.60;99.90;;;;;;5076789;28;20435;-63
2020/12/19 04:30:20;;;;;;;5.20;4.70;;;5.70;99.90;;;;;;5079873;28;20175;-63
2020/12/19 04:32:45;;;;;;;7.93;5.87;;;5.70;99.90;;;;;;5080749;28;20162;-63
2020/12/19 04:35:11;;;;;;;5.70;5.10;;;5.50;99.90;;;;;;5080679;28;20192;-63
2020/12/19 04:37:36;;;;;;;4.60;4.20;;;5.60;99.90;;;;;;5086838;28;20205;-63
2020/12/19 04:40:04;;;;;;;5.23;4.83;;;5.70;99.90;;;;;;5101641;28;20687;-63
2020/12/19 04:42:29;;;;;;;5.50;4.90;;;5.60;99.90;;;;;;5100904;28;20170;-63
2020/12/19 04:44:55;;;;;;;5.77;5.27;;;5.70;99.90;;;;;;5100113;28;20467;-62
2020/12/19 04:47:21;;;;;;;5.70;5.10;;;5.60;99.90;;;;;;5099318;28;20232;-62
2020/12/19 04:49:46;;;;;;;5.63;5.13;;;5.60;99.90;;;;;;5099274;28;20653;-63
2020/12/19 04:52:13;;;;;;;5.23;4.73;;;5.60;99.90;;;;;;5100094;28;20204;-63
2020/12/19 04:54:38;;;;;;;4.90;4.37;;;5.60;99.90;;;;;;5100767;28;20218;-63
2020/12/19 04:57:04;;;;;;;5.77;5.00;;;5.70;99.90;;;;;;5100168;28;20442;-63
2020/12/19 04:59:30;;;;;;;7.63;6.30;;;5.60;99.90;;;;;;5100017;28;20572;-62
2020/12/19 05:01:56;;;;;;;6.17;5.67;;;5.40;99.90;;;;;;5100380;28;20406;-63
2020/12/19 05:04:23;;;;;;;5.97;4.30;;;5.40;99.90;;;;;;5084335;28;20182;-63
2020/12/19 05:06:48;;;;;;;5.40;4.90;;;5.50;99.90;;;;;;5080012;28;20459;-63
2020/12/19 05:09:14;;;;;;;5.77;4.57;;;5.50;99.90;;;;;;5080524;28;20412;-63
2020/12/19 05:11:40;;;;;;;5.80;5.20;;;5.60;99.90;;;;;;5079235;28;20253;-63
2020/12/19 05:14:06;;;;;;;5.50;5.00;;;5.60;99.90;;;;;;5080603;28;20165;-63
2020/12/19 05:16:32;;;;;;;6.63;5.70;;;5.60;99.90;;;;;;5080364;28;20237;-63
2020/12/19 05:19:05;;;;;;;7.10;4.57;;;5.60;99.90;;;;;;5080200;28;20448;-63
2020/12/19 05:21:31;;;;;;;5.33;4.83;;;5.60;99.90;;;;;;5080676;28;20440;-63
2020/12/19 05:23:57;;;;;;;6.80;4.63;;;5.50;99.90;;;;;;5080649;28;20427;-63
2020/12/19 05:26:23;;;;;;;8.00;5.93;;;5.50;99.90;;;;;;5077861;28;20205;-62
2020/12/19 05:28:48;;;;;;;6.27;5.67;;;5.50;99.90;;;;;;5078014;28;20458;-62
2020/12/19 05:31:15;;;;;;;4.87;4.43;;;5.50;99.90;;;;;;5077558;28;20166;-63
2020/12/19 05:33:42;;;;;;;5.33;4.83;;;5.50;99.90;;;;;;5078726;28;20185;-63
2020/12/19 05:36:19;;;;;;;5.20;4.70;;;5.30;99.90;;;;;;5099859;28;20802;-63
2020/12/19 05:38:45;;;;;;;6.57;5.53;;;5.40;99.90;;;;;;5100596;28;20829;-65
2020/12/19 05:41:11;;;;;;;5.40;4.90;;;5.40;99.90;;;;;;5097533;28;20416;-62
2020/12/19 05:43:49;;;;;;;4.83;4.40;;;5.50;99.90;;;;;;5082305;28;20452;-62
2020/12/19 05:46:41;;;;;;;5.10;4.67;;;5.50;99.90;;;;;;5078245;28;20435;-62
2020/12/19 05:49:11;;;;;;;5.53;5.03;;;5.40;99.90;;;;;;5076223;28;20408;-63
2020/12/19 05:51:39;;;;;;;6.80;4.90;;;5.40;99.90;;;;;;5079828;28;20409;-63
2020/12/19 05:54:12;;;;;;;4.93;4.53;;;5.50;99.90;;;;;;5079407;28;20411;-63
2020/12/19 05:56:43;;;;;;;7.87;5.13;;;5.40;99.90;;;;;;5079397;28;20481;-63
2020/12/19 05:59:14;;;;;;;5.50;4.30;;;5.50;99.90;;;;;;5078618;28;20462;-64
2020/12/19 06:01:44;;;;;;;7.27;4.57;;;5.60;99.90;;;;;;5078553;28;20461;-63
2020/12/19 06:04:11;;;;;;;6.00;5.40;;;5.60;99.90;;;;;;5077162;28;20389;-63
2020/12/19 06:06:43;;;;;;;7.23;5.57;;;5.50;99.90;;;;;;5078015;28;20447;-63
2020/12/19 06:09:09;;;;;;;6.70;5.23;;;5.40;99.90;;;;;;5078887;28;20387;-63
2020/12/19 06:11:49;;;;;;;9.20;7.73;;;5.40;99.90;;;;;;5078580;28;20450;-63
2020/12/19 06:14:20;;;;;;;10.70;8.13;;;5.40;99.90;;;;;;5077411;28;20404;-63
2020/12/19 06:16:48;;;;;;;8.97;8.00;;;5.30;99.90;;;;;;5084549;28;20420;-63
2020/12/19 06:19:20;;;;;;;9.73;8.30;;;5.40;99.90;;;;;;5093548;28;20499;-63
2020/12/19 06:21:56;;;;;;;9.40;8.03;;;5.40;99.90;;;;;;5098398;28;20379;-63
2020/12/19 06:24:39;;;;;;;10.20;7.43;;;5.40;99.90;;;;;;5098365;28;20398;-63
2020/12/19 06:27:28;;;;;;;8.37;6.50;;;5.40;99.90;;;;;;5098186;28;20494;-62
2020/12/19 06:29:54;;;;;;;9.73;7.80;;;5.30;99.90;;;;;;5098557;28;20482;-63
2020/12/19 06:32:21;;;;;;;6.53;5.93;;;5.30;99.90;;;;;;5099087;28;20403;-63
2020/12/19 06:34:57;;;;;;;6.80;5.80;;;5.20;99.90;;;;;;5097682;28;20230;-63
2020/12/19 06:37:26;;;;;;;7.83;6.53;;;5.10;99.90;;;;;;5093960;28;20592;-63
2020/12/19 06:40:07;;;;;;;7.23;6.37;;;5.20;99.90;;;;;;5079081;28;20412;-63
2020/12/19 06:42:32;;;;;;;8.23;6.67;;;5.20;99.90;;;;;;5078372;28;20389;-63
2020/12/19 06:45:22;;;;;;;8.77;7.87;;;5.20;99.90;;;;;;5079324;28;20435;-63
2020/12/19 06:47:48;;;;;;;8.70;7.90;;;5.20;99.90;;;;;;5078454;28;20194;-63
2020/12/19 06:50:14;;;;;;;10.23;9.13;;;5.30;99.90;;;;;;5075878;28;20403;-64
2020/12/19 06:53:00;;;;;;;9.27;6.80;;;5.30;99.90;;;;;;5075968;28;20404;-63
2020/12/19 06:55:28;;;;;;;8.30;6.50;;;5.30;99.90;;;;;;5076927;28;20391;-63
2020/12/19 06:57:59;;;;;;;7.23;6.63;;;5.30;99.90;;;;;;5074955;28;20447;-63
2020/12/19 07:00:29;;;;;;;7.27;6.50;;;5.40;99.90;;;;;;5077097;28;20403;-64
2020/12/19 07:03:03;;;;;;;6.40;5.70;;;5.40;99.90;;;;;;5074348;28;20411;-61
2020/12/19 07:05:34;;;;;;;7.30;6.40;;;5.30;99.90;;;;;;5076357;28;20928;-63
2020/12/19 07:08:22;;;;;;;6.07;5.47;;;5.30;99.90;;;;;;5076481;28;20416;-63
2020/12/19 07:10:48;;;;;;;7.57;6.13;;;5.30;99.90;;;;;;5075631;28;20419;-63
2020/12/19 07:13:14;;;;;;;5.97;5.40;;;5.20;99.90;;;;;;5075909;28;20409;-63
2020/12/19 07:15:48;;;;;;;7.40;6.30;;;5.10;99.90;;;;;;5075632;28;20408;-62
2020/12/19 07:18:24;;;;;;;6.93;6.33;;;5.10;99.90;;;;;;5075974;28;20562;-63
2020/12/19 07:21:00;;;;;;;7.20;6.40;;;5.20;99.90;;;;;;5076391;28;20530;-63
2020/12/19 07:23:27;;;;;;;6.63;6.13;;;5.10;99.90;;;;;;5075194;28;20899;-63
2020/12/19 07:25:52;;;;;;;6.50;5.83;;;5.10;99.90;;;;;;5075430;28;20456;-60
2020/12/19 07:28:18;;;;;;;7.80;6.90;;;5.20;99.90;;;;;;5075656;28;20505;-63
2020/12/19 07:30:50;;;;;;;6.57;6.07;;;5.20;99.90;;;;;;5075823;28;20264;-63
2020/12/19 07:33:16;;;;;;;7.23;6.33;;;5.20;99.90;;;;;;5076157;28;20526;-62
2020/12/19 07:35:41;;;;;;;6.37;5.77;;;5.30;99.90;;;;;;5074827;28;20412;-62
2020/12/19 07:38:07;;;;;;;6.30;5.77;;;5.20;99.90;;;;;;5075263;28;20436;-63
2020/12/19 07:40:33;;;;;;;7.83;7.00;;;5.10;99.90;;;;;;5075514;28;20260;-62
2020/12/19 07:43:09;;;;;;;9.13;7.40;;;5.10;99.90;;;;;;5096928;28;20180;-63
2020/12/19 07:45:36;;;;;;;6.90;6.30;;;5.20;99.90;;;;;;5096721;28;20474;-63
2020/12/19 07:48:02;;;;;;;7.90;7.20;;;5.30;99.90;;;;;;5095539;28;20468;-63
2020/12/19 07:50:30;;;;;;;8.40;7.50;;;5.30;99.90;;;;;;5095908;28;20407;-63
2020/12/19 07:52:59;;;;;;;8.67;7.83;;;5.30;99.90;;;;;;5095841;28;20984;-63
2020/12/19 07:55:25;;;;;;;7.60;6.90;;;5.30;99.90;;;;;;5095149;28;20410;-62
2020/12/19 07:57:54;;;;;;;12.30;11.10;;;5.30;99.90;;;;;;5094779;28;20415;-63
2020/12/19 08:00:20;;;;;;;10.53;9.43;;;5.30;99.90;;;;;;5095390;28;20396;-61
2020/12/19 08:02:45;;;;;;;9.37;8.47;;;5.20;99.90;;;;;;5094711;28;20400;-65
2020/12/19 08:05:11;;;;;;;11.20;10.07;;;5.20;99.90;;;;;;5099391;28;20419;-63
2020/12/19 08:07:37;;;;;;;11.20;10.10;;;5.20;99.90;;;;;;5099595;28;20723;-64
2020/12/19 08:10:10;;;;;;;9.90;8.90;;;5.10;99.90;;;;;;5099046;28;20403;-61
2020/12/19 08:12:37;;;;;;;13.47;11.10;;;5.10;99.90;;;;;;5078096;28;20404;-62
2020/12/19 08:15:09;;;;;;;13.00;11.63;;;5.20;99.90;;;;;;5078572;28;20923;-62
2020/12/19 08:17:45;;;;;;;12.43;10.70;;;5.10;99.90;;;;;;5078898;28;20424;-61
2020/12/19 08:20:10;;;;;;;11.10;10.10;;;5.20;99.90;;;;;;5078545;28;20534;-63
2020/12/19 08:22:36;;;;;;;13.50;12.10;;;5.20;99.90;;;;;;5082271;28;20912;-63
2020/12/19 08:25:02;;;;;;;12.00;10.80;;;5.30;99.90;;;;;;5078401;28;20168;-64
2020/12/19 08:27:40;;;;;;;15.27;13.67;;;5.30;99.90;;;;;;5076166;28;20206;-64
2020/12/19 08:30:10;;;;;;;18.50;14.57;;;5.30;99.90;;;;;;5076650;28;20481;-65
2020/12/19 08:32:38;;;;;;;14.50;13.10;;;5.30;99.90;;;;;;5076160;28;20906;-64
2020/12/19 08:35:04;;;;;;;12.30;11.00;;;5.30;99.90;;;;;;5076516;28;20420;-63
2020/12/19 08:37:31;;;;;;;13.00;11.70;;;5.30;99.90;;;;;;5077896;28;20482;-64
2020/12/19 08:40:15;;;;;;;15.03;12.47;;;5.30;99.90;;;;;;5077804;28;20178;-60
2020/12/19 08:42:41;;;;;;;12.50;11.27;;;5.40;99.90;;;;;;5078617;28;20392;-62
2020/12/19 08:45:16;;;;;;;11.33;10.33;;;5.40;99.90;;;;;;5078050;28;20427;-62
2020/12/19 08:47:42;;;;;;;10.90;10.00;;;5.50;99.90;;;;;;5077727;28;20459;-63
2020/12/19 08:50:08;;;;;;;11.10;10.00;;;5.60;99.90;;;;;;5077988;28;20406;-63
2020/12/19 08:52:36;;;;;;;11.93;10.60;;;5.60;99.90;;;;;;5077639;28;20432;-63
2020/12/19 08:55:02;;;;;;;10.53;9.53;;;5.60;99.90;;;;;;5078129;28;20408;-62
2020/12/19 08:57:31;;;;;;;11.93;10.70;;;5.60;99.90;;;;;;5077961;28;20458;-62
2020/12/19 09:00:14;;;;;;;10.40;9.40;;;5.70;99.90;;;;;;5077621;28;20500;-64
2020/12/19 09:02:43;;;;;;;12.10;10.80;;;5.80;99.90;;;;;;5080878;28;20434;-62
2020/12/19 09:05:10;;;;;;;13.33;11.87;;;5.70;99.90;;;;;;5080798;28;20412;-64
2020/12/19 09:07:36;;;;;;;14.33;12.80;;;5.60;99.90;;;;;;5080127;28;20479;-63
2020/12/19 09:10:28;;;;;;;16.23;12.07;;;5.60;99.90;;;;;;5090521;28;20533;-63
2020/12/19 09:13:21;;;;;;;12.10;10.90;;;5.80;99.90;;;;;;5080322;28;20400;-65
2020/12/19 09:15:48;;;;;;;11.47;10.40;;;5.90;99.90;;;;;;5076949;28;20820;-61
2020/12/19 09:18:32;;;;;;;12.93;11.73;;;5.90;99.90;;;;;;5078789;28;20428;-66
2020/12/19 09:20:59;;;;;;;13.63;12.30;;;5.90;99.90;;;;;;5078212;28;20393;-63
2020/12/19 09:23:27;;;;;;;13.43;12.03;;;6.00;99.90;;;;;;5077504;28;20405;-63
2020/12/19 09:25:58;;;;;;;12.70;11.50;;;6.10;99.90;;;;;;5077617;28;20500;-63
2020/12/19 09:28:24;;;;;;;16.03;14.40;;;6.20;99.90;;;;;;5078120;28;20416;-64
2020/12/19 09:30:51;;;;;;;14.40;12.97;;;6.20;99.90;;;;;;5077572;28;20409;-64
2020/12/19 09:33:18;;;;;;;13.30;11.90;;;6.40;99.90;;;;;;5076270;28;20482;-64
2020/12/19 09:35:43;;;;;;;15.87;13.97;;;6.50;99.90;;;;;;5076911;28;20440;-63
2020/12/19 09:38:09;;;;;;;13.03;11.67;;;6.60;99.90;;;;;;5076799;28;20416;-63
2020/12/19 09:40:35;;;;;;;11.73;10.60;;;6.50;99.90;;;;;;5076961;28;20197;-63
2020/12/19 09:43:01;;;;;;;11.90;10.80;;;6.70;99.90;;;;;;5076708;28;20487;-63
2020/12/19 09:45:27;;;;;;;14.30;12.17;;;6.80;99.90;;;;;;5088870;28;20509;-63
2020/12/19 09:47:55;;;;;;;11.53;10.53;;;7.00;99.90;;;;;;5117963;28;20185;-63
2020/12/19 09:50:21;;;;;;;12.00;10.47;;;7.10;99.90;;;;;;5117557;28;20464;-62
2020/12/19 09:52:47;;;;;;;12.40;11.20;;;7.20;99.90;;;;;;5117112;27;20406;-63
2020/12/19 09:55:13;;;;;;;11.17;10.17;;;7.30;99.90;;;;;;5117229;28;20482;-61
2020/12/19 09:57:39;;;;;;;14.33;13.00;;;7.40;99.90;;;;;;5117462;28;20648;-62
2020/12/19 10:00:10;;;;;;;20.90;17.67;;;7.50;99.90;;;;;;5117675;28;20410;-64
2020/12/19 10:02:36;;;;;;;14.47;13.00;;;7.50;99.90;;;;;;5116883;28;20573;-65
2020/12/19 10:05:02;;;;;;;12.10;10.90;;;7.60;99.90;;;;;;5085798;28;20417;-61
2020/12/19 10:07:28;;;;;;;12.47;11.27;;;7.70;99.90;;;;;;5076385;28;20247;-63
2020/12/19 10:09:53;;;;;;;10.50;9.50;;;7.90;99.90;;;;;;5076413;28;20404;-63
2020/12/19 10:12:19;;;;;;;12.47;11.23;;;8.00;99.90;;;;;;5076400;28;20170;-63
2020/12/19 10:14:45;;;;;;;12.87;11.57;;;8.10;99.90;;;;;;5075383;28;20549;-63
2020/12/19 10:17:10;;;;;;;13.83;12.17;;;8.20;99.90;;;;;;5076750;28;20191;-63
2020/12/19 10:19:36;;;;;;;13.73;12.33;;;8.30;99.90;;;;;;5076276;28;20205;-65
2020/12/19 10:22:02;;;;;;;13.60;11.80;;;8.30;99.90;;;;;;5076696;28;20217;-64
2020/12/19 10:24:28;;;;;;;11.47;9.83;;;8.30;99.90;;;;;;5076571;28;20548;-64
2020/12/19 10:26:54;;;;;;;10.63;9.53;;;8.30;99.90;;;;;;5075344;28;20832;-64
2020/12/19 10:29:20;;;;;;;11.97;10.27;;;8.30;99.90;;;;;;5090468;28;20422;-64
2020/12/19 10:31:45;;;;;;;12.27;10.93;;;8.40;99.90;;;;;;5079700;28;20414;-62
2020/12/19 10:34:11;;;;;;;11.93;10.83;;;8.50;99.90;;;;;;5078371;28;20174;-63
2020/12/19 10:36:37;;;;;;;13.23;11.93;;;8.40;99.90;;;;;;5079888;28;20174;-64
2020/12/19 10:39:03;;;;;;;12.57;11.17;;;8.60;99.90;;;;;;5077521;28;20191;-63
2020/12/19 10:41:29;;;;;;;12.47;11.17;;;8.60;99.90;;;;;;5075787;28;20585;-64
2020/12/19 10:43:55;;;;;;;13.73;11.50;;;8.60;99.90;;;;;;5075985;28;20461;-64
2020/12/19 10:46:21;;;;;;;10.77;9.77;;;8.70;99.90;;;;;;5075824;28;20195;-64
2020/12/19 10:48:47;;;;;;;11.40;10.23;;;8.80;99.90;;;;;;5073928;28;20607;-63
2020/12/19 10:51:13;;;;;;;11.67;9.93;;;8.90;99.90;;;;;;5075575;28;20485;-64
2020/12/19 10:53:43;;;;;;;10.07;9.07;;;9.10;99.90;;;;;;5075406;28;20180;-63
2020/12/19 10:56:20;;;;;;;8.80;7.90;;;9.40;99.90;;;;;;5076740;28;20487;-64
2020/12/19 10:58:45;;;;;;;9.23;8.27;;;10.70;99.90;;;;;;5076559;28;20547;-63
2020/12/19 11:01:11;;;;;;;9.47;8.47;;;12.50;99.90;;;;;;5074432;28;20457;-64
2020/12/19 11:03:37;;;;;;;11.20;8.30;;;14.40;99.90;;;;;;5073906;28;20209;-63
2020/12/19 11:06:02;;;;;;;8.10;7.30;;;15.80;98.90;;;;;;5075354;28;20707;-64
2020/12/19 11:08:28;;;;;;;9.63;8.80;;;17.20;97.20;;;;;;5073566;28;20284;-64
2020/12/19 11:10:54;;;;;;;8.50;7.40;;;18.60;95.30;;;;;;5074283;28;20220;-62
2020/12/19 11:13:19;;;;;;;7.57;6.77;;;19.40;91.50;;;;;;5074348;28;20176;-64
2020/12/19 11:15:45;;;;;;;6.53;5.93;;;19.50;90.00;;;;;;5073712;28;20255;-64
2020/12/19 11:18:10;;;;;;;8.43;6.80;;;20.40;84.30;;;;;;5071677;28;20325;-64
2020/12/19 11:20:37;;;;;;;7.67;6.97;;;20.90;83.00;;;;;;5078482;28;20201;-63
2020/12/19 11:23:02;;;;;;;8.37;7.53;;;20.80;81.10;;;;;;5080505;28;20228;-63
2020/12/19 11:25:28;;;;;;;6.87;6.13;;;21.60;79.40;;;;;;5073983;28;20404;-63
2020/12/19 11:27:53;;;;;;;7.10;6.50;;;22.00;76.90;;;;;;5073762;28;20215;-64
2020/12/19 11:30:19;;;;;;;8.33;6.50;;;22.60;73.90;;;;;;5074164;28;20187;-63
2020/12/19 11:32:45;;;;;;;6.83;6.23;;;23.00;73.50;;;;;;5073611;28;20166;-64
2020/12/19 11:35:11;;;;;;;7.60;6.90;;;23.70;69.60;;;;;;5073454;28;20170;-65
2020/12/19 11:37:36;;;;;;;7.33;6.63;;;24.10;66.90;;;;;;5072704;28;20519;-64
2020/12/19 11:40:04;;;;;;;8.03;6.93;;;23.50;67.00;;;;;;5073553;28;20241;-64
2020/12/19 11:42:29;;;;;;;11.93;6.80;;;22.80;68.40;;;;;;5073332;28;20229;-64
2020/12/19 11:44:55;;;;;;;6.90;6.33;;;23.80;66.10;;;;;;5073690;28;20404;-61
2020/12/19 11:47:21;;;;;;;7.10;6.40;;;23.90;64.90;;;;;;5073371;28;20205;-62
2020/12/19 11:49:46;;;;;;;8.00;6.53;;;24.20;65.10;;;;;;5085112;28;20170;-62
2020/12/19 11:52:12;;;;;;;8.90;6.23;;;22.80;65.30;;;;;;5093395;28;20158;-66
2020/12/19 11:54:39;;;;;;;7.30;6.07;;;21.50;67.50;;;;;;5072774;28;20196;-63
2020/12/19 11:57:05;;;;;;;7.90;6.97;;;20.60;70.70;;;;;;5073639;28;20424;-62
2020/12/19 11:59:31;;;;;;;8.97;6.20;;;19.90;72.40;;;;;;5074071;28;20458;-63
2020/12/19 12:02:00;;;;;;;7.43;5.80;;;19.40;74.60;;;;;;5073272;28;20802;-63
2020/12/19 12:04:26;;;;;;;7.50;5.60;;;18.70;77.30;;;;;;5073346;28;20170;-62
2020/12/19 12:06:51;;;;;;;6.97;6.37;;;20.80;74.30;;;;;;5073306;28;20940;-64
2020/12/19 12:09:17;;;;;;;6.17;5.57;;;22.00;70.10;;;;;;5073064;28;20201;-65
2020/12/19 12:11:42;;;;;;;6.63;5.83;;;21.10;69.60;;;;;;5073378;28;20193;-65
2020/12/19 12:14:08;;;;;;;7.80;7.03;;;22.30;71.40;;;;;;5073171;28;20253;-65
2020/12/19 12:16:36;;;;;;;7.87;7.07;;;23.80;67.10;;;;;;5073150;28;20212;-65
2020/12/19 12:19:02;;;;;;;12.00;6.50;;;24.70;64.30;;;;;;5072477;28;20232;-65
2020/12/19 12:21:38;;;;;;;7.73;5.20;;;25.50;61.80;;;;;;5072788;28;20408;-65
2020/12/19 12:24:04;;;;;;;5.53;4.23;;;26.10;58.30;;;;;;5072167;28;20177;-66
2020/12/19 12:26:31;;;;;;;4.80;4.30;;;25.00;59.30;;;;;;5071931;28;20550;-66
2020/12/19 12:28:56;;;;;;;5.37;4.40;;;22.40;61.70;;;;;;5072778;28;20467;-65
2020/12/19 12:31:26;;;;;;;4.83;4.43;;;20.90;67.50;;;;;;5072876;28;20408;-66
2020/12/19 12:33:53;;;;;;;4.57;4.17;;;20.00;70.70;;;;;;5072856;28;20166;-65
2020/12/19 12:36:20;;;;;;;5.77;4.50;;;19.00;74.50;;;;;;5072367;28;20412;-65
2020/12/19 12:38:46;;;;;;;6.53;5.10;;;17.80;78.60;;;;;;5071639;28;20481;-65
2020/12/19 12:41:12;;;;;;;6.30;5.53;;;16.70;80.80;;;;;;5071637;28;20402;-67
2020/12/19 12:43:37;;;;;;;6.67;6.07;;;16.20;82.90;;;;;;5071992;28;20431;-65
2020/12/19 12:46:03;;;;;;;7.90;5.27;;;15.80;85.80;;;;;;5072346;28;20457;-65
2020/12/19 12:48:29;;;;;;;6.63;5.73;;;15.50;89.50;;;;;;5072210;28;20202;-65
2020/12/19 12:50:54;;;;;;;8.37;5.30;;;14.90;91.30;;;;;;5075443;28;20430;-64
2020/12/19 12:53:20;;;;;;;5.90;5.40;;;14.60;93.40;;;;;;5076091;28;20190;-65